Tioga, Louisiana
Current Conditions -  °F | °C
As of 1:57 PM on Monday 22 Dec 2014 (Local Time) from KESF Reporting Station
Overcast Overcast  
Wind Chill: 64°   Ceiling: 1600
Heat Index: 64°   Visibility: 10mi
Dew Point: 60°   Wind: 8mph
Humidity: 87%   Direction: 180°S
Pressure: 29.64"   Gusts: NA
Location:  31.39°N, 92.43°W
Report Text: KESF 221957Z AUTO 18007KT 10SM SCT009 OVC016 18/16 A2964 RMK AO2 T01780156
Loading
Personal Weather Stations






























Interactive Weather Map New forecast layout! Learn more

10-Day Weather Forecast

Advertisements
Track Severe Weather on mobile